createdAt,value
2023-04-25T00:00:21.149Z,55.40
2023-04-25T00:02:48.580Z,57.30
2023-04-25T00:05:17.386Z,57.20
2023-04-25T00:07:44.642Z,57.10
2023-04-25T00:10:14.650Z,56.60
2023-04-25T00:12:42.595Z,57.60
2023-04-25T00:15:10.892Z,58.30
2023-04-25T00:17:39.635Z,57.80
2023-04-25T00:20:10.480Z,57.20
2023-04-25T00:22:40.648Z,57.80
2023-04-25T00:25:08.608Z,57.70
2023-04-25T00:27:35.817Z,58.50
2023-04-25T00:30:03.762Z,58.90
2023-04-25T00:32:30.922Z,57.20
2023-04-25T00:34:59.286Z,57.30
2023-04-25T00:37:26.658Z,58.00
2023-04-25T00:39:56.066Z,58.50
2023-04-25T00:42:23.282Z,58.80
2023-04-25T00:44:51.224Z,58.50
2023-04-25T00:47:18.705Z,58.60
2023-04-25T00:49:45.962Z,59.60
2023-04-25T00:52:13.690Z,58.00
2023-04-25T00:54:41.416Z,58.80
2023-04-25T00:57:08.672Z,59.20
2023-04-25T00:59:37.296Z,60.00
2023-04-25T01:02:05.035Z,59.70
2023-04-25T01:04:32.414Z,60.20
2023-04-25T01:06:59.786Z,59.80
2023-04-25T01:09:27.399Z,59.70
2023-04-25T01:11:54.735Z,59.60
2023-04-25T01:14:21.901Z,59.80
2023-04-25T01:16:49.422Z,59.80
2023-04-25T01:19:19.388Z,60.80
2023-04-25T01:21:46.827Z,61.50
2023-04-25T01:24:14.771Z,61.70
2023-04-25T01:26:45.650Z,61.70
2023-04-25T01:29:12.976Z,61.00
2023-04-25T01:31:40.568Z,61.40
2023-04-25T01:34:08.176Z,61.90
2023-04-25T01:36:36.340Z,61.50
2023-04-25T01:39:04.260Z,62.60
2023-04-25T01:41:32.235Z,62.70
2023-04-25T01:43:59.670Z,64.00
2023-04-25T01:46:27.900Z,63.20
2023-04-25T01:48:55.137Z,63.80
2023-04-25T01:51:22.652Z,64.60
2023-04-25T01:53:50.767Z,63.50
2023-04-25T01:56:19.729Z,63.40
2023-04-25T01:58:47.327Z,63.80
2023-04-25T02:01:14.673Z,64.20
2023-04-25T02:03:42.056Z,64.00
2023-04-25T02:06:09.698Z,64.60
2023-04-25T02:08:38.540Z,63.90
2023-04-25T02:11:05.777Z,64.00
2023-04-25T02:13:32.983Z,65.60
2023-04-25T02:16:00.319Z,65.00
2023-04-25T02:18:27.637Z,64.30
2023-04-25T02:20:55.050Z,64.80
2023-04-25T02:23:22.339Z,64.80
2023-04-25T02:25:50.171Z,65.20
2023-04-25T02:28:17.278Z,64.60
2023-04-25T02:30:44.439Z,65.10
2023-04-25T02:33:11.700Z,64.10
2023-04-25T02:35:38.963Z,65.90
2023-04-25T02:38:06.179Z,65.40
2023-04-25T02:40:33.380Z,65.40
2023-04-25T02:43:00.587Z,65.90
2023-04-25T02:45:27.852Z,65.80
2023-04-25T02:47:55.081Z,66.50
2023-04-25T02:50:22.553Z,67.40
2023-04-25T02:52:49.786Z,67.10
2023-04-25T02:55:17.138Z,67.50
2023-04-25T02:57:44.373Z,68.30
2023-04-25T03:00:13.022Z,68.90
2023-04-25T03:02:40.272Z,68.60
2023-04-25T03:05:08.439Z,68.30
2023-04-25T03:07:35.836Z,68.10
2023-04-25T03:10:03.565Z,68.20
2023-04-25T03:12:30.835Z,68.60
2023-04-25T03:14:58.036Z,68.90
2023-04-25T03:17:25.277Z,69.40
2023-04-25T03:19:52.440Z,69.20
2023-04-25T03:22:19.631Z,71.00
2023-04-25T03:24:46.969Z,71.80
2023-04-25T03:27:14.362Z,72.20
2023-04-25T03:29:41.709Z,73.80
2023-04-25T03:32:08.909Z,75.00
2023-04-25T03:34:36.737Z,75.00
2023-04-25T03:37:03.958Z,75.40
2023-04-25T03:39:31.104Z,75.20
2023-04-25T03:41:58.236Z,75.50
2023-04-25T03:44:25.906Z,75.80
2023-04-25T03:46:53.112Z,74.90
2023-04-25T03:49:20.231Z,75.50
2023-04-25T03:51:47.325Z,76.10
2023-04-25T03:54:14.567Z,76.70
2023-04-25T03:56:41.742Z,77.40
2023-04-25T03:59:09.195Z,77.50
2023-04-25T04:01:36.557Z,78.60
2023-04-25T04:04:04.178Z,80.20
2023-04-25T04:06:31.599Z,83.20
2023-04-25T04:08:58.727Z,85.30
2023-04-25T04:11:25.959Z,84.10
2023-04-25T04:13:53.383Z,83.80
2023-04-25T04:16:20.809Z,83.00
2023-04-25T04:18:48.130Z,82.50
2023-04-25T04:21:16.197Z,82.00
2023-04-25T04:23:43.319Z,80.40
2023-04-25T04:26:11.274Z,79.90
2023-04-25T04:28:39.097Z,80.70
2023-04-25T04:31:06.284Z,80.80
2023-04-25T04:33:33.498Z,81.00
2023-04-25T04:36:00.791Z,79.30
2023-04-25T04:38:28.021Z,79.00
2023-04-25T04:40:55.102Z,78.10
2023-04-25T04:43:24.115Z,77.70
2023-04-25T04:45:51.536Z,78.80
2023-04-25T04:48:18.733Z,77.80
2023-04-25T04:50:49.104Z,77.10
2023-04-25T04:53:16.480Z,76.90
2023-04-25T04:55:44.152Z,75.40
2023-04-25T04:58:11.405Z,76.60
2023-04-25T05:00:39.467Z,76.40
2023-04-25T05:03:06.985Z,76.70
2023-04-25T05:05:34.256Z,75.70
2023-04-25T05:08:01.555Z,75.40
2023-04-25T05:10:28.699Z,74.90
2023-04-25T05:12:55.889Z,76.20
2023-04-25T05:15:23.009Z,76.30
2023-04-25T05:17:50.139Z,76.40
2023-04-25T05:20:17.613Z,77.50
2023-04-25T05:22:44.723Z,75.60
2023-04-25T05:25:12.156Z,76.40
2023-04-25T05:27:39.328Z,77.30
2023-04-25T05:30:07.208Z,74.90
2023-04-25T05:32:34.262Z,76.10
2023-04-25T05:35:01.521Z,74.00
2023-04-25T05:37:28.677Z,71.60
2023-04-25T05:39:55.827Z,73.80
2023-04-25T05:42:22.972Z,73.20
2023-04-25T05:44:50.054Z,75.20
2023-04-25T05:47:17.121Z,72.60
2023-04-25T05:49:44.174Z,72.00
2023-04-25T05:52:11.252Z,72.50
2023-04-25T05:54:38.359Z,70.90
2023-04-25T05:57:05.434Z,69.90
2023-04-25T05:59:32.650Z,70.60
2023-04-25T06:01:59.865Z,69.70
2023-04-25T06:04:27.231Z,68.50
2023-04-25T06:06:54.691Z,68.50
2023-04-25T06:09:22.430Z,68.60
2023-04-25T06:11:49.488Z,71.60
2023-04-25T06:14:16.759Z,72.90
2023-04-25T06:16:43.814Z,72.90
2023-04-25T06:19:11.146Z,74.10
2023-04-25T06:21:38.258Z,73.40
2023-04-25T06:24:05.781Z,73.30
2023-04-25T06:26:32.857Z,72.20
2023-04-25T06:28:59.990Z,71.80
2023-04-25T06:31:27.166Z,71.20
2023-04-25T06:33:55.873Z,68.80
2023-04-25T06:36:29.022Z,72.00
2023-04-25T06:38:56.279Z,69.20
2023-04-25T06:41:23.360Z,67.00
2023-04-25T06:43:50.650Z,65.90
2023-04-25T06:46:17.849Z,66.20
2023-04-25T06:48:44.980Z,62.90
2023-04-25T06:51:12.141Z,63.20
2023-04-25T06:53:39.245Z,65.40
2023-04-25T06:56:06.720Z,63.10
2023-04-25T06:58:33.770Z,63.70
2023-04-25T07:01:00.902Z,64.90
2023-04-25T07:03:28.319Z,65.70
2023-04-25T07:05:56.211Z,62.60
2023-04-25T07:08:23.295Z,61.00
2023-04-25T07:10:50.502Z,60.10
2023-04-25T07:13:17.642Z,59.10
2023-04-25T07:15:45.792Z,57.90
2023-04-25T07:18:13.043Z,55.50
2023-04-25T07:20:40.147Z,60.30
2023-04-25T07:23:07.311Z,59.70
2023-04-25T07:25:34.420Z,61.30
2023-04-25T07:28:01.551Z,61.10
2023-04-25T07:30:28.832Z,57.80
2023-04-25T07:32:56.724Z,54.60
2023-04-25T07:35:24.149Z,54.00
2023-04-25T07:37:51.556Z,56.50
2023-04-25T07:40:18.815Z,55.40
2023-04-25T07:42:46.089Z,53.90
2023-04-25T07:45:13.392Z,54.20
2023-04-25T07:47:40.667Z,52.20
2023-04-25T07:50:08.363Z,53.30
2023-04-25T07:52:35.549Z,54.60
2023-04-25T07:55:02.679Z,54.80
2023-04-25T07:57:30.497Z,53.50
2023-04-25T07:59:58.104Z,53.00
2023-04-25T08:02:29.544Z,51.20
2023-04-25T08:04:57.067Z,49.20
2023-04-25T08:07:24.347Z,50.10
2023-04-25T08:09:51.459Z,49.10
2023-04-25T08:12:18.567Z,50.30
2023-04-25T08:14:45.766Z,52.00
2023-04-25T08:17:12.879Z,52.80
2023-04-25T08:19:40.643Z,48.40
2023-04-25T08:22:07.785Z,50.40
2023-04-25T08:24:36.537Z,51.50
2023-04-25T08:27:05.027Z,49.00
2023-04-25T08:29:32.081Z,48.20
2023-04-25T08:31:59.305Z,47.40
2023-04-25T08:34:27.093Z,48.50
2023-04-25T08:36:54.381Z,47.30
2023-04-25T08:39:22.161Z,48.80
2023-04-25T08:41:49.371Z,47.50
2023-04-25T08:44:17.533Z,46.40
2023-04-25T08:46:50.953Z,48.50
2023-04-25T08:49:19.409Z,45.80
2023-04-25T08:51:52.395Z,48.60
2023-04-25T08:54:35.393Z,49.00
2023-04-25T08:57:05.541Z,47.10
2023-04-25T08:59:34.029Z,44.60
2023-04-25T09:02:02.252Z,48.10
2023-04-25T09:04:34.323Z,45.80
2023-04-25T09:07:01.619Z,49.20
2023-04-25T09:09:28.689Z,49.50
2023-04-25T09:11:56.827Z,48.50
2023-04-25T09:14:26.345Z,46.10
2023-04-25T09:17:02.622Z,45.20
2023-04-25T09:19:40.182Z,45.00
2023-04-25T09:22:08.995Z,44.50
2023-04-25T09:24:50.130Z,46.90
2023-04-25T09:27:24.100Z,52.30
2023-04-25T09:29:59.220Z,46.90
2023-04-25T09:32:26.997Z,45.40
2023-04-25T09:34:56.517Z,48.30
2023-04-25T09:37:26.274Z,47.20
2023-04-25T09:39:56.901Z,49.70
2023-04-25T09:42:28.813Z,48.50
2023-04-25T09:44:57.527Z,47.20
2023-04-25T09:47:26.427Z,48.80
2023-04-25T09:49:54.892Z,49.40
2023-04-25T09:52:26.333Z,44.30
2023-04-25T09:54:54.032Z,43.80
2023-04-25T09:57:25.804Z,47.00
2023-04-25T09:59:57.297Z,41.90
2023-04-25T10:02:27.238Z,42.40
2023-04-25T10:04:57.752Z,46.50
2023-04-25T10:07:29.666Z,45.10
2023-04-25T10:10:03.084Z,46.00
2023-04-25T10:12:32.378Z,45.20
2023-04-25T10:15:00.464Z,49.10
2023-04-25T10:17:30.593Z,50.40
2023-04-25T10:19:58.657Z,47.40
2023-04-25T10:22:38.388Z,47.40
2023-04-25T10:25:07.369Z,46.40
2023-04-25T10:27:36.110Z,45.90
2023-04-25T10:30:12.538Z,47.50
2023-04-25T10:32:40.084Z,49.40
2023-04-25T10:35:18.405Z,48.40
2023-04-25T10:38:05.990Z,45.10
2023-04-25T10:40:34.273Z,45.30
2023-04-25T10:43:32.069Z,46.90
2023-04-25T10:46:01.943Z,49.30
2023-04-25T10:48:32.818Z,51.10
2023-04-25T10:51:13.153Z,51.80
2023-04-25T10:53:40.159Z,55.10
2023-04-25T10:56:21.655Z,55.40
2023-04-25T10:58:51.398Z,56.10
2023-04-25T11:01:26.619Z,58.10
2023-04-25T11:03:59.868Z,57.90
2023-04-25T11:06:55.911Z,59.90
2023-04-25T11:09:29.276Z,61.50
2023-04-25T11:11:57.947Z,63.60
2023-04-25T11:14:25.392Z,64.00
2023-04-25T11:19:50.408Z,67.50
2023-04-25T11:22:17.559Z,59.60
2023-04-25T11:24:45.015Z,58.30
2023-04-25T11:27:12.116Z,53.30
2023-04-25T11:29:39.227Z,55.60
2023-04-25T11:32:06.562Z,52.40
2023-04-25T11:34:35.237Z,53.00
2023-04-25T11:37:04.035Z,52.00
2023-04-25T11:39:31.197Z,53.60
2023-04-25T11:41:59.676Z,53.80
2023-04-25T11:44:28.269Z,55.00
2023-04-25T11:46:56.395Z,55.90
2023-04-25T11:49:23.546Z,52.30
2023-04-25T11:51:50.709Z,53.20
2023-04-25T11:54:17.925Z,52.10
2023-04-25T11:56:47.891Z,53.20
2023-04-25T11:59:15.751Z,53.90
2023-04-25T12:01:50.392Z,55.60
2023-04-25T12:04:22.004Z,53.40
2023-04-25T12:06:52.028Z,53.30
2023-04-25T12:09:22.693Z,53.80
2023-04-25T12:11:54.424Z,53.40
2023-04-25T12:14:28.798Z,50.40
2023-04-25T12:17:01.814Z,55.00
2023-04-25T12:19:35.351Z,53.40
2023-04-25T12:22:04.583Z,52.30
2023-04-25T12:24:38.785Z,51.90
2023-04-25T12:27:11.602Z,49.40
2023-04-25T12:29:49.585Z,49.80
2023-04-25T12:32:18.195Z,53.80
2023-04-25T12:34:46.163Z,49.50
2023-04-25T12:37:14.044Z,50.60
2023-04-25T12:39:41.352Z,51.00
2023-04-25T12:42:13.367Z,52.70
2023-04-25T12:44:41.538Z,54.90
2023-04-25T12:47:08.977Z,54.70
2023-04-25T12:49:36.486Z,54.60
2023-04-25T12:52:04.120Z,56.30
2023-04-25T12:54:31.475Z,57.50
2023-04-25T12:56:58.731Z,56.50
2023-04-25T12:59:25.952Z,58.10
2023-04-25T13:01:53.162Z,56.70
2023-04-25T13:04:22.476Z,60.50
2023-04-25T13:06:49.993Z,56.90
2023-04-25T13:09:17.065Z,57.50
2023-04-25T13:11:44.718Z,61.80
2023-04-25T13:14:11.932Z,56.10
2023-04-25T13:16:39.116Z,53.50
2023-04-25T13:19:08.880Z,53.30
2023-04-25T13:21:36.271Z,52.40
2023-04-25T13:24:03.673Z,52.40
2023-04-25T13:26:30.889Z,52.60
2023-04-25T13:28:58.414Z,51.70
2023-04-25T13:31:26.017Z,53.30
2023-04-25T13:33:53.639Z,52.80
2023-04-25T13:36:21.353Z,49.60
2023-04-25T13:38:50.542Z,51.60
2023-04-25T13:41:20.042Z,52.80
2023-04-25T13:43:49.676Z,50.80
2023-04-25T13:46:35.484Z,54.90
2023-04-25T13:49:12.331Z,53.00
2023-04-25T13:51:40.925Z,50.50
2023-04-25T13:54:08.910Z,53.30
2023-04-25T13:56:36.415Z,52.00
2023-04-25T13:59:04.040Z,49.50
2023-04-25T14:01:35.571Z,49.20
2023-04-25T14:04:05.106Z,48.20
2023-04-25T14:06:33.267Z,46.20
2023-04-25T14:09:02.338Z,47.20
2023-04-25T14:11:29.496Z,50.50
2023-04-25T14:13:56.592Z,48.20
2023-04-25T14:16:24.568Z,46.80
2023-04-25T14:18:51.870Z,46.30
2023-04-25T14:21:18.991Z,47.40
2023-04-25T14:23:46.524Z,45.90
2023-04-25T14:26:13.907Z,43.90
2023-04-25T14:28:40.967Z,44.80
2023-04-25T14:31:08.704Z,44.00
2023-04-25T14:33:36.993Z,45.30
2023-04-25T14:36:04.364Z,43.70
2023-04-25T14:38:31.459Z,43.60
2023-04-25T14:40:58.657Z,41.80
2023-04-25T14:43:25.886Z,42.40
2023-04-25T14:45:53.143Z,41.80
2023-04-25T14:48:20.882Z,44.10
2023-04-25T14:50:48.043Z,45.40
2023-04-25T14:53:15.372Z,42.30
2023-04-25T14:55:43.197Z,44.50
2023-04-25T14:58:10.623Z,44.70
2023-04-25T15:00:38.574Z,44.80
2023-04-25T15:03:05.936Z,45.30
2023-04-25T15:05:33.193Z,46.80
2023-04-25T15:08:00.308Z,46.20
2023-04-25T15:10:27.495Z,44.10
2023-04-25T15:12:54.805Z,45.60
2023-04-25T15:15:26.475Z,49.60
2023-04-25T15:17:58.782Z,47.00
2023-04-25T15:20:26.663Z,46.60
2023-04-25T15:22:53.888Z,45.70
2023-04-25T15:25:21.269Z,47.50
2023-04-25T15:27:49.798Z,47.10
2023-04-25T15:30:18.113Z,48.10
2023-04-25T15:32:46.664Z,50.20
2023-04-25T15:35:14.555Z,50.30
2023-04-25T15:37:41.880Z,45.20
2023-04-25T15:40:15.423Z,45.50
2023-04-25T15:42:44.019Z,45.80
2023-04-25T15:45:12.418Z,45.70
2023-04-25T15:47:39.874Z,45.20
2023-04-25T15:50:09.709Z,47.70
2023-04-25T15:52:38.504Z,48.90
2023-04-25T15:55:06.792Z,51.50
2023-04-25T15:57:35.077Z,50.00
2023-04-25T16:00:11.325Z,49.20
2023-04-25T16:02:42.025Z,47.50
2023-04-25T16:05:11.571Z,47.50
2023-04-25T16:07:40.322Z,46.00
2023-04-25T16:10:08.360Z,44.10
2023-04-25T16:12:36.617Z,43.50
2023-04-25T16:15:04.632Z,42.40
2023-04-25T16:17:33.583Z,41.90
2023-04-25T16:20:04.641Z,44.10
2023-04-25T16:22:32.472Z,43.10
2023-04-25T16:24:59.569Z,43.40
2023-04-25T16:27:27.112Z,42.10
2023-04-25T16:29:54.154Z,41.90
2023-04-25T16:32:21.283Z,43.80
2023-04-25T16:34:48.370Z,47.10
2023-04-25T16:37:15.568Z,48.20
2023-04-25T16:39:42.723Z,49.50
2023-04-25T16:42:09.993Z,51.70
2023-04-25T16:44:37.165Z,54.10
2023-04-25T16:47:06.312Z,54.60
2023-04-25T16:49:33.796Z,56.80
2023-04-25T16:52:01.029Z,56.60
2023-04-25T16:54:28.312Z,56.40
2023-04-25T16:56:55.749Z,57.50
2023-04-25T16:59:22.889Z,57.90
2023-04-25T17:01:50.179Z,58.80
2023-04-25T17:04:17.749Z,59.20
2023-04-25T17:06:45.090Z,59.70
2023-04-25T17:09:12.250Z,60.40
2023-04-25T17:11:39.464Z,61.40
2023-04-25T17:14:06.744Z,61.50
2023-04-25T17:16:38.596Z,62.10
2023-04-25T17:19:06.961Z,62.50
2023-04-25T17:21:34.242Z,62.70
2023-04-25T17:24:01.580Z,63.20
2023-04-25T17:26:28.862Z,63.90
2023-04-25T17:28:56.185Z,64.80
2023-04-25T17:31:24.047Z,65.40
2023-04-25T17:33:51.232Z,66.80
2023-04-25T17:36:18.663Z,67.60
2023-04-25T17:38:45.826Z,68.30
2023-04-25T17:41:15.177Z,69.30
2023-04-25T17:43:42.312Z,69.50
2023-04-25T17:46:09.572Z,70.60
2023-04-25T17:48:36.747Z,71.90
2023-04-25T17:51:03.936Z,73.80
2023-04-25T17:53:31.229Z,74.30
2023-04-25T17:55:58.312Z,74.70
2023-04-25T17:58:25.387Z,75.00
2023-04-25T18:00:52.692Z,76.00
2023-04-25T18:03:19.900Z,77.60
2023-04-25T18:05:47.294Z,78.20
2023-04-25T18:08:14.378Z,78.60
2023-04-25T18:10:41.518Z,79.30
2023-04-25T18:13:09.455Z,79.60
2023-04-25T18:15:36.509Z,80.20
2023-04-25T18:18:09.873Z,81.10
2023-04-25T18:20:38.168Z,81.60
2023-04-25T18:23:05.802Z,82.60
2023-04-25T18:25:33.005Z,83.40
2023-04-25T18:28:00.424Z,84.40
2023-04-25T18:30:27.791Z,85.70
2023-04-25T18:32:56.201Z,85.60
2023-04-25T18:35:23.471Z,86.70
2023-04-25T18:37:50.548Z,87.30
2023-04-25T18:40:17.718Z,88.10
2023-04-25T18:42:44.839Z,88.70
2023-04-25T18:45:12.203Z,89.60
2023-04-25T18:47:39.402Z,90.00
2023-04-25T18:50:08.428Z,90.60
2023-04-25T18:52:35.591Z,90.40
2023-04-25T18:55:02.714Z,90.50
2023-04-25T18:57:29.749Z,90.70
2023-04-25T18:59:56.981Z,90.70
2023-04-25T19:02:24.259Z,90.80
2023-04-25T19:04:51.565Z,91.00
2023-04-25T19:07:21.161Z,91.10
2023-04-25T19:09:48.416Z,91.30
2023-04-25T19:12:15.563Z,91.60
2023-04-25T19:14:43.043Z,92.20
2023-04-25T19:17:10.250Z,92.60
2023-04-25T19:19:37.416Z,92.70
2023-04-25T19:22:04.558Z,92.70
2023-04-25T19:24:33.383Z,93.00
2023-04-25T19:27:01.756Z,93.70
2023-04-25T19:29:30.302Z,92.40
2023-04-25T19:31:59.695Z,91.60
2023-04-25T19:34:27.288Z,91.70
2023-04-25T19:36:54.523Z,91.30
2023-04-25T19:39:23.102Z,91.20
2023-04-25T19:41:50.333Z,91.00
2023-04-25T19:44:17.532Z,90.60
2023-04-25T19:46:46.894Z,90.30
2023-04-25T19:49:14.283Z,90.30
2023-04-25T19:51:42.784Z,90.20
2023-04-25T19:54:09.931Z,90.20
2023-04-25T19:56:37.151Z,90.10
2023-04-25T19:59:04.354Z,90.00
2023-04-25T20:01:31.748Z,90.50
2023-04-25T20:03:59.142Z,90.30
2023-04-25T20:06:27.393Z,90.20
2023-04-25T20:08:55.029Z,90.10
2023-04-25T20:11:22.718Z,90.30
2023-04-25T20:13:50.283Z,90.30
2023-04-25T20:16:20.166Z,90.30
2023-04-25T20:18:48.789Z,90.60
2023-04-25T20:21:17.489Z,90.80
2023-04-25T20:23:45.642Z,91.60
2023-04-25T20:26:13.070Z,91.80
2023-04-25T20:28:42.020Z,92.00
2023-04-25T20:31:11.196Z,92.10
2023-04-25T20:33:39.052Z,92.30
2023-04-25T20:36:06.421Z,92.80
2023-04-25T20:38:33.609Z,93.10
2023-04-25T20:41:00.901Z,93.40
2023-04-25T20:43:28.255Z,93.30
2023-04-25T20:45:55.552Z,93.10
2023-04-25T20:48:22.828Z,93.70
2023-04-25T20:50:50.036Z,94.40
2023-04-25T20:53:17.330Z,94.40
2023-04-25T20:55:44.561Z,95.10
2023-04-25T20:58:11.748Z,95.50
2023-04-25T21:00:39.258Z,95.60
2023-04-25T21:03:07.525Z,96.30
2023-04-25T21:05:35.116Z,96.90
2023-04-25T21:08:03.157Z,97.00
2023-04-25T21:10:30.371Z,97.20
2023-04-25T21:12:58.170Z,97.20
2023-04-25T21:15:25.603Z,97.30
2023-04-25T21:17:52.943Z,97.50
2023-04-25T21:20:22.064Z,97.50
2023-04-25T21:22:53.843Z,97.40
2023-04-25T21:25:29.423Z,97.50
2023-04-25T21:27:57.350Z,97.60
2023-04-25T21:30:26.057Z,97.70
2023-04-25T21:32:53.549Z,98.10
2023-04-25T21:35:22.450Z,97.90
2023-04-25T21:37:50.285Z,97.90
2023-04-25T21:40:17.712Z,98.20
2023-04-25T21:42:50.123Z,98.70
2023-04-25T21:45:18.614Z,99.30
2023-04-25T21:47:47.095Z,99.50
2023-04-25T21:50:15.466Z,99.90
2023-04-25T21:52:45.820Z,99.90
2023-04-25T21:55:13.105Z,99.90
2023-04-25T21:57:40.386Z,99.90
2023-04-25T22:00:20.787Z,99.90
2023-04-25T22:03:00.514Z,99.90
2023-04-25T22:05:28.464Z,99.90
2023-04-25T22:07:59.304Z,99.90
2023-04-25T22:10:26.672Z,99.90
2023-04-25T22:12:54.193Z,99.90
2023-04-25T22:15:23.993Z,99.90
2023-04-25T22:17:52.716Z,99.90
2023-04-25T22:20:20.448Z,99.90
2023-04-25T22:22:47.555Z,99.90
2023-04-25T22:25:15.289Z,99.90
2023-04-25T22:27:43.122Z,99.90
2023-04-25T22:30:15.039Z,99.90
2023-04-25T22:32:42.267Z,99.90
2023-04-25T22:35:10.779Z,99.90
2023-04-25T22:37:38.072Z,99.90
2023-04-25T22:40:11.768Z,99.90
2023-04-25T22:42:43.823Z,99.90
2023-04-25T22:45:12.506Z,99.90
2023-04-25T22:47:40.400Z,99.90
2023-04-25T22:50:13.631Z,99.90
2023-04-25T22:52:43.297Z,99.90
2023-04-25T22:55:12.572Z,99.90
2023-04-25T22:57:40.594Z,99.90
2023-04-25T23:00:16.070Z,99.90
2023-04-25T23:02:46.497Z,99.90
2023-04-25T23:05:15.376Z,99.90
2023-04-25T23:07:44.756Z,99.90
2023-04-25T23:10:14.565Z,99.90
2023-04-25T23:12:41.886Z,99.90
2023-04-25T23:15:10.257Z,99.90
2023-04-25T23:17:37.576Z,99.90
2023-04-25T23:20:07.905Z,99.90
2023-04-25T23:22:35.245Z,99.90
2023-04-25T23:25:02.747Z,99.90
2023-04-25T23:27:29.889Z,99.90
2023-04-25T23:29:58.164Z,99.90
2023-04-25T23:32:26.573Z,99.90
2023-04-25T23:34:53.814Z,99.90
2023-04-25T23:37:21.050Z,99.90
2023-04-25T23:39:51.172Z,99.90
2023-04-25T23:42:19.127Z,99.90
2023-04-25T23:44:46.284Z,99.90
2023-04-25T23:47:14.340Z,99.90
2023-04-25T23:49:41.643Z,99.90
2023-04-25T23:52:08.807Z,99.90
2023-04-25T23:54:36.231Z,99.90
2023-04-25T23:57:06.658Z,99.90
2023-04-25T23:59:33.965Z,99.90
